Newburgh, Maine
Current Conditions -  °F | °C
As of 12:53 AM on Saturday 25 Oct 2014 (Local Time) from KBGR Reporting Station
Overcast Overcast  
Wind Chill: 41°   Ceiling: 2600
Heat Index: 44°   Visibility: 10mi
Dew Point: 42°   Wind: 6mph
Humidity: 93%   Direction: 300°WNW
Pressure: 29.65"   Gusts: NA
Location:  44.7323°N, 68.9137°W
Report Text: KBGR 250453Z 30005KT 10SM OVC026 07/06 A2965 RMK AO2 SLP042 T00670056 400830061
Loading
Personal Weather Stations






























Interactive Weather Map
Tropical Storm Tracking
New forecast layout! Learn more

10-Day Weather Forecast

Advertisements
Track Severe Weather on mobile